sensor_id;sensor_type;location;lat;lon;timestamp;P1;durP1;ratioP1;P2;durP2;ratioP2
83560;SDS011;73534;52.584;13.392;2024-01-16T00:00:27;6.45;;;2.80;;
83560;SDS011;73534;52.584;13.392;2024-01-16T00:02:52;3.72;;;2.33;;
83560;SDS011;73534;52.584;13.392;2024-01-16T00:05:17;3.38;;;2.38;;
83560;SDS011;73534;52.584;13.392;2024-01-16T00:07:43;4.03;;;2.40;;
83560;SDS011;73534;52.584;13.392;2024-01-16T00:10:08;6.70;;;3.08;;
83560;SDS011;73534;52.584;13.392;2024-01-16T00:12:34;3.33;;;2.42;;
83560;SDS011;73534;52.584;13.392;2024-01-16T00:14:59;4.15;;;2.53;;
83560;SDS011;73534;52.584;13.392;2024-01-16T00:17:24;5.70;;;2.90;;
83560;SDS011;73534;52.584;13.392;2024-01-16T00:19:49;3.38;;;2.47;;
83560;SDS011;73534;52.584;13.392;2024-01-16T00:22:15;4.22;;;2.33;;
83560;SDS011;73534;52.584;13.392;2024-01-16T00:24:40;4.35;;;3.00;;
83560;SDS011;73534;52.584;13.392;2024-01-16T00:27:06;3.55;;;2.60;;
83560;SDS011;73534;52.584;13.392;2024-01-16T00:29:31;3.42;;;2.90;;
83560;SDS011;73534;52.584;13.392;2024-01-16T00:31:56;3.35;;;2.47;;
83560;SDS011;73534;52.584;13.392;2024-01-16T00:34:22;3.60;;;3.13;;
83560;SDS011;73534;52.584;13.392;2024-01-16T00:36:47;7.38;;;3.05;;
83560;SDS011;73534;52.584;13.392;2024-01-16T00:39:13;4.65;;;3.38;;
83560;SDS011;73534;52.584;13.392;2024-01-16T00:41:38;4.40;;;2.75;;
83560;SDS011;73534;52.584;13.392;2024-01-16T00:44:04;3.70;;;2.65;;
83560;SDS011;73534;52.584;13.392;2024-01-16T00:46:29;3.63;;;3.17;;
83560;SDS011;73534;52.584;13.392;2024-01-16T00:48:55;3.42;;;2.33;;
83560;SDS011;73534;52.584;13.392;2024-01-16T00:51:20;5.03;;;2.72;;
83560;SDS011;73534;52.584;13.392;2024-01-16T00:53:45;3.85;;;3.15;;
83560;SDS011;73534;52.584;13.392;2024-01-16T00:56:11;4.85;;;2.58;;
83560;SDS011;73534;52.584;13.392;2024-01-16T00:58:37;4.50;;;2.92;;
83560;SDS011;73534;52.584;13.392;2024-01-16T01:01:02;3.75;;;2.40;;
83560;SDS011;73534;52.584;13.392;2024-01-16T01:03:28;3.15;;;1.90;;
83560;SDS011;73534;52.584;13.392;2024-01-16T01:05:53;2.90;;;2.67;;
83560;SDS011;73534;52.584;13.392;2024-01-16T01:08:19;5.40;;;2.40;;
83560;SDS011;73534;52.584;13.392;2024-01-16T01:10:44;4.25;;;2.70;;
83560;SDS011;73534;52.584;13.392;2024-01-16T01:13:09;3.45;;;2.50;;
83560;SDS011;73534;52.584;13.392;2024-01-16T01:15:35;4.72;;;2.40;;
83560;SDS011;73534;52.584;13.392;2024-01-16T01:18:00;4.22;;;2.17;;
83560;SDS011;73534;52.584;13.392;2024-01-16T01:20:25;4.28;;;2.33;;
83560;SDS011;73534;52.584;13.392;2024-01-16T01:22:51;2.45;;;2.25;;
83560;SDS011;73534;52.584;13.392;2024-01-16T01:25:16;3.13;;;2.13;;
83560;SDS011;73534;52.584;13.392;2024-01-16T01:27:42;4.28;;;2.55;;
83560;SDS011;73534;52.584;13.392;2024-01-16T01:30:07;2.92;;;2.25;;
83560;SDS011;73534;52.584;13.392;2024-01-16T01:32:35;3.40;;;2.30;;
83560;SDS011;73534;52.584;13.392;2024-01-16T01:35:00;3.13;;;2.83;;
83560;SDS011;73534;52.584;13.392;2024-01-16T01:37:26;4.15;;;2.42;;
83560;SDS011;73534;52.584;13.392;2024-01-16T01:39:51;2.42;;;2.15;;
83560;SDS011;73534;52.584;13.392;2024-01-16T01:42:16;3.80;;;2.55;;
83560;SDS011;73534;52.584;13.392;2024-01-16T01:44:41;2.47;;;2.25;;
83560;SDS011;73534;52.584;13.392;2024-01-16T01:47:07;4.80;;;2.63;;
83560;SDS011;73534;52.584;13.392;2024-01-16T01:49:33;3.50;;;2.47;;
83560;SDS011;73534;52.584;13.392;2024-01-16T01:51:58;3.13;;;2.42;;
83560;SDS011;73534;52.584;13.392;2024-01-16T01:54:24;4.65;;;2.60;;
83560;SDS011;73534;52.584;13.392;2024-01-16T01:56:49;4.50;;;2.47;;
83560;SDS011;73534;52.584;13.392;2024-01-16T01:59:16;6.47;;;2.72;;
83560;SDS011;73534;52.584;13.392;2024-01-16T02:01:43;6.85;;;3.20;;
83560;SDS011;73534;52.584;13.392;2024-01-16T02:04:10;3.20;;;2.90;;
83560;SDS011;73534;52.584;13.392;2024-01-16T02:06:35;4.45;;;3.22;;
83560;SDS011;73534;52.584;13.392;2024-01-16T02:09:01;5.68;;;2.88;;
83560;SDS011;73534;52.584;13.392;2024-01-16T02:11:26;3.17;;;2.85;;
83560;SDS011;73534;52.584;13.392;2024-01-16T02:13:51;4.68;;;3.15;;
83560;SDS011;73534;52.584;13.392;2024-01-16T02:16:17;6.63;;;2.90;;
83560;SDS011;73534;52.584;13.392;2024-01-16T02:18:46;3.90;;;3.50;;
83560;SDS011;73534;52.584;13.392;2024-01-16T02:21:11;5.95;;;3.25;;
83560;SDS011;73534;52.584;13.392;2024-01-16T02:23:38;5.00;;;3.58;;
83560;SDS011;73534;52.584;13.392;2024-01-16T02:26:03;4.30;;;3.33;;
83560;SDS011;73534;52.584;13.392;2024-01-16T02:28:29;5.07;;;2.60;;
83560;SDS011;73534;52.584;13.392;2024-01-16T02:30:54;5.93;;;3.22;;
83560;SDS011;73534;52.584;13.392;2024-01-16T02:33:19;5.78;;;2.50;;
83560;SDS011;73534;52.584;13.392;2024-01-16T02:35:45;2.70;;;2.50;;
83560;SDS011;73534;52.584;13.392;2024-01-16T02:38:10;4.35;;;3.13;;
83560;SDS011;73534;52.584;13.392;2024-01-16T02:40:35;3.03;;;2.60;;
83560;SDS011;73534;52.584;13.392;2024-01-16T02:43:00;4.95;;;2.92;;
83560;SDS011;73534;52.584;13.392;2024-01-16T02:45:26;3.85;;;2.42;;
83560;SDS011;73534;52.584;13.392;2024-01-16T02:47:51;2.92;;;2.50;;
83560;SDS011;73534;52.584;13.392;2024-01-16T02:50:16;4.45;;;2.53;;
83560;SDS011;73534;52.584;13.392;2024-01-16T02:52:42;5.72;;;2.65;;
83560;SDS011;73534;52.584;13.392;2024-01-16T02:55:07;3.53;;;2.75;;
83560;SDS011;73534;52.584;13.392;2024-01-16T02:57:33;4.38;;;2.42;;
83560;SDS011;73534;52.584;13.392;2024-01-16T02:59:58;5.10;;;3.00;;
83560;SDS011;73534;52.584;13.392;2024-01-16T03:02:23;4.60;;;3.33;;
83560;SDS011;73534;52.584;13.392;2024-01-16T03:04:49;3.22;;;2.75;;
83560;SDS011;73534;52.584;13.392;2024-01-16T03:07:14;4.10;;;2.50;;
83560;SDS011;73534;52.584;13.392;2024-01-16T03:09:40;6.25;;;3.08;;
83560;SDS011;73534;52.584;13.392;2024-01-16T03:12:05;8.10;;;3.15;;
83560;SDS011;73534;52.584;13.392;2024-01-16T03:14:30;3.45;;;3.00;;
83560;SDS011;73534;52.584;13.392;2024-01-16T03:17:00;4.10;;;3.28;;
83560;SDS011;73534;52.584;13.392;2024-01-16T03:19:26;4.28;;;2.65;;
83560;SDS011;73534;52.584;13.392;2024-01-16T03:21:51;3.28;;;2.85;;
83560;SDS011;73534;52.584;13.392;2024-01-16T03:24:17;6.88;;;3.13;;
83560;SDS011;73534;52.584;13.392;2024-01-16T03:26:42;8.82;;;3.28;;
83560;SDS011;73534;52.584;13.392;2024-01-16T03:29:08;4.95;;;3.08;;
83560;SDS011;73534;52.584;13.392;2024-01-16T03:31:33;6.43;;;3.85;;
83560;SDS011;73534;52.584;13.392;2024-01-16T03:33:59;3.70;;;3.08;;
83560;SDS011;73534;52.584;13.392;2024-01-16T03:36:24;5.97;;;4.00;;
83560;SDS011;73534;52.584;13.392;2024-01-16T03:38:49;4.22;;;3.25;;
83560;SDS011;73534;52.584;13.392;2024-01-16T03:41:14;3.67;;;3.35;;
83560;SDS011;73534;52.584;13.392;2024-01-16T03:43:40;5.75;;;3.17;;
83560;SDS011;73534;52.584;13.392;2024-01-16T03:46:05;4.78;;;3.53;;
83560;SDS011;73534;52.584;13.392;2024-01-16T03:48:31;5.20;;;3.38;;
83560;SDS011;73534;52.584;13.392;2024-01-16T03:50:56;5.15;;;3.95;;
83560;SDS011;73534;52.584;13.392;2024-01-16T03:53:22;5.30;;;3.63;;
83560;SDS011;73534;52.584;13.392;2024-01-16T03:55:47;6.90;;;3.63;;
83560;SDS011;73534;52.584;13.392;2024-01-16T03:58:13;5.03;;;3.17;;
83560;SDS011;73534;52.584;13.392;2024-01-16T04:00:38;4.95;;;3.30;;
83560;SDS011;73534;52.584;13.392;2024-01-16T04:03:04;5.43;;;3.53;;
83560;SDS011;73534;52.584;13.392;2024-01-16T04:05:29;4.93;;;3.33;;
83560;SDS011;73534;52.584;13.392;2024-01-16T04:07:56;8.30;;;3.25;;
83560;SDS011;73534;52.584;13.392;2024-01-16T04:10:21;5.70;;;3.33;;
83560;SDS011;73534;52.584;13.392;2024-01-16T04:12:47;6.35;;;4.05;;
83560;SDS011;73534;52.584;13.392;2024-01-16T04:15:12;7.03;;;4.03;;
83560;SDS011;73534;52.584;13.392;2024-01-16T04:17:37;7.07;;;3.92;;
83560;SDS011;73534;52.584;13.392;2024-01-16T04:20:03;4.45;;;2.95;;
83560;SDS011;73534;52.584;13.392;2024-01-16T04:22:30;3.80;;;3.30;;
83560;SDS011;73534;52.584;13.392;2024-01-16T04:24:55;6.20;;;3.75;;
83560;SDS011;73534;52.584;13.392;2024-01-16T04:27:20;5.78;;;4.13;;
83560;SDS011;73534;52.584;13.392;2024-01-16T04:29:46;6.32;;;3.38;;
83560;SDS011;73534;52.584;13.392;2024-01-16T04:32:11;4.97;;;3.30;;
83560;SDS011;73534;52.584;13.392;2024-01-16T04:34:36;3.72;;;2.97;;
83560;SDS011;73534;52.584;13.392;2024-01-16T04:37:02;6.00;;;4.20;;
83560;SDS011;73534;52.584;13.392;2024-01-16T04:39:28;4.93;;;2.85;;
83560;SDS011;73534;52.584;13.392;2024-01-16T04:41:53;3.65;;;3.08;;
83560;SDS011;73534;52.584;13.392;2024-01-16T04:44:19;4.32;;;2.95;;
83560;SDS011;73534;52.584;13.392;2024-01-16T04:46:44;4.53;;;3.47;;
83560;SDS011;73534;52.584;13.392;2024-01-16T04:49:10;6.32;;;3.83;;
83560;SDS011;73534;52.584;13.392;2024-01-16T04:51:36;4.22;;;3.50;;
83560;SDS011;73534;52.584;13.392;2024-01-16T04:54:01;4.20;;;3.85;;
83560;SDS011;73534;52.584;13.392;2024-01-16T04:56:26;4.13;;;3.40;;
83560;SDS011;73534;52.584;13.392;2024-01-16T04:58:52;5.00;;;3.03;;
83560;SDS011;73534;52.584;13.392;2024-01-16T05:01:17;4.75;;;3.63;;
83560;SDS011;73534;52.584;13.392;2024-01-16T05:03:43;5.28;;;3.60;;
83560;SDS011;73534;52.584;13.392;2024-01-16T05:06:15;7.45;;;3.83;;
83560;SDS011;73534;52.584;13.392;2024-01-16T05:08:40;5.43;;;4.22;;
83560;SDS011;73534;52.584;13.392;2024-01-16T05:11:06;6.47;;;3.50;;
83560;SDS011;73534;52.584;13.392;2024-01-16T05:13:31;6.07;;;3.50;;
83560;SDS011;73534;52.584;13.392;2024-01-16T05:15:57;4.70;;;3.40;;
83560;SDS011;73534;52.584;13.392;2024-01-16T05:18:22;5.45;;;4.03;;
83560;SDS011;73534;52.584;13.392;2024-01-16T05:20:47;6.28;;;3.88;;
83560;SDS011;73534;52.584;13.392;2024-01-16T05:23:12;6.00;;;3.88;;
83560;SDS011;73534;52.584;13.392;2024-01-16T05:25:38;7.28;;;4.03;;
83560;SDS011;73534;52.584;13.392;2024-01-16T05:28:03;5.63;;;3.85;;
83560;SDS011;73534;52.584;13.392;2024-01-16T05:30:29;5.43;;;4.03;;
83560;SDS011;73534;52.584;13.392;2024-01-16T05:32:54;6.45;;;3.88;;
83560;SDS011;73534;52.584;13.392;2024-01-16T05:35:20;5.30;;;3.92;;
83560;SDS011;73534;52.584;13.392;2024-01-16T05:37:45;5.72;;;3.83;;
83560;SDS011;73534;52.584;13.392;2024-01-16T05:40:10;5.50;;;4.78;;
83560;SDS011;73534;52.584;13.392;2024-01-16T05:42:36;5.88;;;4.13;;
83560;SDS011;73534;52.584;13.392;2024-01-16T05:45:02;5.75;;;4.20;;
83560;SDS011;73534;52.584;13.392;2024-01-16T05:47:27;7.60;;;4.50;;
83560;SDS011;73534;52.584;13.392;2024-01-16T05:49:53;5.05;;;3.78;;
83560;SDS011;73534;52.584;13.392;2024-01-16T05:52:19;8.25;;;4.95;;
83560;SDS011;73534;52.584;13.392;2024-01-16T05:54:44;6.97;;;4.22;;
83560;SDS011;73534;52.584;13.392;2024-01-16T05:57:10;5.32;;;4.53;;
83560;SDS011;73534;52.584;13.392;2024-01-16T05:59:35;9.88;;;5.18;;
83560;SDS011;73534;52.584;13.392;2024-01-16T06:02:00;6.03;;;4.60;;
83560;SDS011;73534;52.584;13.392;2024-01-16T06:04:25;7.53;;;4.25;;
83560;SDS011;73534;52.584;13.392;2024-01-16T06:06:51;6.28;;;4.78;;
83560;SDS011;73534;52.584;13.392;2024-01-16T06:09:16;8.30;;;4.75;;
83560;SDS011;73534;52.584;13.392;2024-01-16T06:11:41;7.93;;;4.18;;
83560;SDS011;73534;52.584;13.392;2024-01-16T06:14:07;7.90;;;4.97;;
83560;SDS011;73534;52.584;13.392;2024-01-16T06:16:32;6.80;;;4.07;;
83560;SDS011;73534;52.584;13.392;2024-01-16T06:18:58;8.43;;;4.90;;
83560;SDS011;73534;52.584;13.392;2024-01-16T06:21:23;11.50;;;5.22;;
83560;SDS011;73534;52.584;13.392;2024-01-16T06:23:49;5.57;;;4.78;;
83560;SDS011;73534;52.584;13.392;2024-01-16T06:26:14;7.20;;;5.25;;
83560;SDS011;73534;52.584;13.392;2024-01-16T06:28:40;10.02;;;5.75;;
83560;SDS011;73534;52.584;13.392;2024-01-16T06:31:07;8.02;;;5.72;;
83560;SDS011;73534;52.584;13.392;2024-01-16T06:33:33;8.52;;;5.60;;
83560;SDS011;73534;52.584;13.392;2024-01-16T06:35:58;8.23;;;5.22;;
83560;SDS011;73534;52.584;13.392;2024-01-16T06:38:24;6.50;;;4.65;;
83560;SDS011;73534;52.584;13.392;2024-01-16T06:40:49;9.02;;;5.18;;
83560;SDS011;73534;52.584;13.392;2024-01-16T06:43:14;7.80;;;4.97;;
83560;SDS011;73534;52.584;13.392;2024-01-16T06:45:40;10.02;;;6.05;;
83560;SDS011;73534;52.584;13.392;2024-01-16T06:48:07;8.07;;;4.93;;
83560;SDS011;73534;52.584;13.392;2024-01-16T06:50:32;10.30;;;5.60;;
83560;SDS011;73534;52.584;13.392;2024-01-16T06:52:57;8.57;;;5.30;;
83560;SDS011;73534;52.584;13.392;2024-01-16T06:55:23;10.13;;;4.90;;
83560;SDS011;73534;52.584;13.392;2024-01-16T06:57:48;7.38;;;4.72;;
83560;SDS011;73534;52.584;13.392;2024-01-16T07:00:14;9.40;;;4.95;;
83560;SDS011;73534;52.584;13.392;2024-01-16T07:02:39;7.38;;;4.80;;
83560;SDS011;73534;52.584;13.392;2024-01-16T07:05:08;7.95;;;4.97;;
83560;SDS011;73534;52.584;13.392;2024-01-16T07:07:34;8.85;;;4.45;;
83560;SDS011;73534;52.584;13.392;2024-01-16T07:09:59;7.05;;;5.15;;
83560;SDS011;73534;52.584;13.392;2024-01-16T07:12:24;9.60;;;4.80;;
83560;SDS011;73534;52.584;13.392;2024-01-16T07:14:50;8.10;;;4.93;;
83560;SDS011;73534;52.584;13.392;2024-01-16T07:17:15;5.80;;;4.50;;
83560;SDS011;73534;52.584;13.392;2024-01-16T07:19:41;7.65;;;4.80;;
83560;SDS011;73534;52.584;13.392;2024-01-16T07:22:06;9.18;;;5.43;;
83560;SDS011;73534;52.584;13.392;2024-01-16T07:24:31;6.50;;;4.70;;
83560;SDS011;73534;52.584;13.392;2024-01-16T07:26:56;6.38;;;4.90;;
83560;SDS011;73534;52.584;13.392;2024-01-16T07:29:22;7.95;;;5.00;;
83560;SDS011;73534;52.584;13.392;2024-01-16T07:31:47;8.45;;;6.13;;
83560;SDS011;73534;52.584;13.392;2024-01-16T07:34:13;9.77;;;5.25;;
83560;SDS011;73534;52.584;13.392;2024-01-16T07:36:42;11.18;;;5.07;;
83560;SDS011;73534;52.584;13.392;2024-01-16T07:39:07;11.00;;;6.38;;
83560;SDS011;73534;52.584;13.392;2024-01-16T07:41:33;9.60;;;5.45;;
83560;SDS011;73534;52.584;13.392;2024-01-16T07:43:58;10.07;;;6.55;;
83560;SDS011;73534;52.584;13.392;2024-01-16T07:46:24;6.90;;;5.20;;
83560;SDS011;73534;52.584;13.392;2024-01-16T07:48:50;6.50;;;5.45;;
83560;SDS011;73534;52.584;13.392;2024-01-16T07:51:15;8.15;;;4.97;;
83560;SDS011;73534;52.584;13.392;2024-01-16T07:53:41;9.27;;;5.82;;
83560;SDS011;73534;52.584;13.392;2024-01-16T07:56:06;7.72;;;5.20;;
83560;SDS011;73534;52.584;13.392;2024-01-16T07:58:31;10.27;;;5.75;;
83560;SDS011;73534;52.584;13.392;2024-01-16T08:00:57;8.45;;;5.93;;
83560;SDS011;73534;52.584;13.392;2024-01-16T08:03:22;9.05;;;5.32;;
83560;SDS011;73534;52.584;13.392;2024-01-16T08:05:47;8.55;;;6.72;;
83560;SDS011;73534;52.584;13.392;2024-01-16T08:08:12;12.57;;;6.20;;
83560;SDS011;73534;52.584;13.392;2024-01-16T08:10:40;7.78;;;5.18;;
83560;SDS011;73534;52.584;13.392;2024-01-16T08:13:07;8.57;;;5.35;;
83560;SDS011;73534;52.584;13.392;2024-01-16T08:15:33;8.75;;;5.10;;
83560;SDS011;73534;52.584;13.392;2024-01-16T08:17:59;10.02;;;5.88;;
83560;SDS011;73534;52.584;13.392;2024-01-16T08:20:25;7.30;;;5.03;;
83560;SDS011;73534;52.584;13.392;2024-01-16T08:22:50;8.02;;;6.03;;
83560;SDS011;73534;52.584;13.392;2024-01-16T08:25:15;7.68;;;4.90;;
83560;SDS011;73534;52.584;13.392;2024-01-16T08:27:40;15.57;;;6.45;;
83560;SDS011;73534;52.584;13.392;2024-01-16T08:30:07;9.70;;;5.53;;
83560;SDS011;73534;52.584;13.392;2024-01-16T08:32:32;8.00;;;5.45;;
83560;SDS011;73534;52.584;13.392;2024-01-16T08:34:58;6.93;;;5.97;;
83560;SDS011;73534;52.584;13.392;2024-01-16T08:37:23;9.05;;;5.57;;
83560;SDS011;73534;52.584;13.392;2024-01-16T08:39:50;10.02;;;6.47;;
83560;SDS011;73534;52.584;13.392;2024-01-16T08:42:15;8.52;;;6.10;;
83560;SDS011;73534;52.584;13.392;2024-01-16T08:44:42;8.27;;;5.50;;
83560;SDS011;73534;52.584;13.392;2024-01-16T08:47:08;10.55;;;5.85;;
83560;SDS011;73534;52.584;13.392;2024-01-16T08:49:34;9.70;;;5.80;;
83560;SDS011;73534;52.584;13.392;2024-01-16T08:52:00;8.20;;;6.13;;
83560;SDS011;73534;52.584;13.392;2024-01-16T08:54:25;9.90;;;6.15;;
83560;SDS011;73534;52.584;13.392;2024-01-16T08:56:52;8.77;;;6.50;;
83560;SDS011;73534;52.584;13.392;2024-01-16T08:59:18;8.82;;;6.72;;
83560;SDS011;73534;52.584;13.392;2024-01-16T09:01:43;7.95;;;5.65;;
83560;SDS011;73534;52.584;13.392;2024-01-16T09:04:08;8.95;;;6.22;;
83560;SDS011;73534;52.584;13.392;2024-01-16T09:06:34;10.63;;;6.32;;
83560;SDS011;73534;52.584;13.392;2024-01-16T09:08:59;12.48;;;6.85;;
83560;SDS011;73534;52.584;13.392;2024-01-16T09:11:24;11.35;;;6.25;;
83560;SDS011;73534;52.584;13.392;2024-01-16T09:13:49;11.63;;;7.80;;
83560;SDS011;73534;52.584;13.392;2024-01-16T09:16:15;10.40;;;6.63;;
83560;SDS011;73534;52.584;13.392;2024-01-16T09:18:40;7.20;;;5.50;;
83560;SDS011;73534;52.584;13.392;2024-01-16T09:21:05;7.72;;;6.10;;
83560;SDS011;73534;52.584;13.392;2024-01-16T09:23:31;9.90;;;6.30;;
83560;SDS011;73534;52.584;13.392;2024-01-16T09:25:56;13.13;;;7.25;;
83560;SDS011;73534;52.584;13.392;2024-01-16T09:28:21;13.93;;;7.45;;
83560;SDS011;73534;52.584;13.392;2024-01-16T09:30:47;10.85;;;6.63;;
83560;SDS011;73534;52.584;13.392;2024-01-16T09:33:12;16.85;;;7.90;;
83560;SDS011;73534;52.584;13.392;2024-01-16T09:35:38;9.68;;;7.78;;
83560;SDS011;73534;52.584;13.392;2024-01-16T09:38:03;11.20;;;6.43;;
83560;SDS011;73534;52.584;13.392;2024-01-16T09:40:30;12.50;;;6.90;;
83560;SDS011;73534;52.584;13.392;2024-01-16T09:42:55;9.38;;;6.60;;
83560;SDS011;73534;52.584;13.392;2024-01-16T09:45:21;10.45;;;7.32;;
83560;SDS011;73534;52.584;13.392;2024-01-16T09:47:47;12.38;;;7.15;;
83560;SDS011;73534;52.584;13.392;2024-01-16T09:50:14;10.52;;;6.68;;
83560;SDS011;73534;52.584;13.392;2024-01-16T09:52:41;10.98;;;7.63;;
83560;SDS011;73534;52.584;13.392;2024-01-16T09:55:06;10.52;;;7.25;;
83560;SDS011;73534;52.584;13.392;2024-01-16T09:57:32;9.88;;;6.90;;
83560;SDS011;73534;52.584;13.392;2024-01-16T09:59:57;10.52;;;7.18;;
83560;SDS011;73534;52.584;13.392;2024-01-16T10:02:24;11.48;;;6.47;;
83560;SDS011;73534;52.584;13.392;2024-01-16T10:04:51;10.23;;;6.72;;
83560;SDS011;73534;52.584;13.392;2024-01-16T10:07:16;9.70;;;6.20;;
83560;SDS011;73534;52.584;13.392;2024-01-16T10:09:43;12.05;;;7.25;;
83560;SDS011;73534;52.584;13.392;2024-01-16T10:12:08;12.73;;;7.43;;
83560;SDS011;73534;52.584;13.392;2024-01-16T10:14:35;14.88;;;9.10;;
83560;SDS011;73534;52.584;13.392;2024-01-16T10:17:02;11.23;;;7.10;;
83560;SDS011;73534;52.584;13.392;2024-01-16T10:19:30;8.45;;;6.07;;
83560;SDS011;73534;52.584;13.392;2024-01-16T10:22:05;12.57;;;6.32;;
83560;SDS011;73534;52.584;13.392;2024-01-16T10:24:31;7.05;;;5.45;;
83560;SDS011;73534;52.584;13.392;2024-01-16T10:26:58;12.25;;;5.60;;
83560;SDS011;73534;52.584;13.392;2024-01-16T10:29:28;7.55;;;5.20;;
83560;SDS011;73534;52.584;13.392;2024-01-16T10:31:53;9.43;;;6.18;;
83560;SDS011;73534;52.584;13.392;2024-01-16T10:34:19;8.88;;;5.75;;
83560;SDS011;73534;52.584;13.392;2024-01-16T10:36:49;8.45;;;5.13;;
83560;SDS011;73534;52.584;13.392;2024-01-16T10:39:15;8.07;;;5.10;;
83560;SDS011;73534;52.584;13.392;2024-01-16T10:41:41;8.40;;;5.20;;
83560;SDS011;73534;52.584;13.392;2024-01-16T10:44:07;6.90;;;5.10;;
83560;SDS011;73534;52.584;13.392;2024-01-16T10:46:33;7.93;;;5.28;;
83560;SDS011;73534;52.584;13.392;2024-01-16T10:49:00;7.65;;;5.60;;
83560;SDS011;73534;52.584;13.392;2024-01-16T10:51:26;8.80;;;5.57;;
83560;SDS011;73534;52.584;13.392;2024-01-16T10:53:55;6.32;;;5.30;;
83560;SDS011;73534;52.584;13.392;2024-01-16T10:56:23;8.02;;;4.68;;
83560;SDS011;73534;52.584;13.392;2024-01-16T10:58:50;7.00;;;4.95;;
83560;SDS011;73534;52.584;13.392;2024-01-16T11:01:20;6.10;;;4.53;;
83560;SDS011;73534;52.584;13.392;2024-01-16T11:03:46;6.88;;;4.65;;
83560;SDS011;73534;52.584;13.392;2024-01-16T11:06:14;7.47;;;4.93;;
83560;SDS011;73534;52.584;13.392;2024-01-16T11:08:41;7.90;;;4.60;;
83560;SDS011;73534;52.584;13.392;2024-01-16T11:11:06;7.78;;;4.88;;
83560;SDS011;73534;52.584;13.392;2024-01-16T11:13:33;7.75;;;4.18;;
83560;SDS011;73534;52.584;13.392;2024-01-16T11:15:59;7.00;;;5.45;;
83560;SDS011;73534;52.584;13.392;2024-01-16T11:18:27;7.65;;;4.70;;
83560;SDS011;73534;52.584;13.392;2024-01-16T11:20:52;7.15;;;5.32;;
83560;SDS011;73534;52.584;13.392;2024-01-16T11:23:19;9.02;;;4.80;;
83560;SDS011;73534;52.584;13.392;2024-01-16T11:25:44;8.20;;;4.45;;
83560;SDS011;73534;52.584;13.392;2024-01-16T11:28:11;9.13;;;5.25;;
83560;SDS011;73534;52.584;13.392;2024-01-16T11:30:37;8.85;;;4.45;;
83560;SDS011;73534;52.584;13.392;2024-01-16T11:33:03;7.10;;;3.95;;
83560;SDS011;73534;52.584;13.392;2024-01-16T11:35:36;6.22;;;4.65;;
83560;SDS011;73534;52.584;13.392;2024-01-16T11:38:06;5.28;;;4.35;;
83560;SDS011;73534;52.584;13.392;2024-01-16T11:40:32;9.70;;;3.97;;
83560;SDS011;73534;52.584;13.392;2024-01-16T11:42:57;8.40;;;3.90;;
83560;SDS011;73534;52.584;13.392;2024-01-16T11:48:07;8.20;;;4.00;;
83560;SDS011;73534;52.584;13.392;2024-01-16T11:50:39;8.48;;;4.95;;
83560;SDS011;73534;52.584;13.392;2024-01-16T11:53:05;7.10;;;4.60;;
83560;SDS011;73534;52.584;13.392;2024-01-16T11:55:31;5.97;;;3.78;;
83560;SDS011;73534;52.584;13.392;2024-01-16T12:00:34;8.02;;;7.32;;
83560;SDS011;73534;52.584;13.392;2024-01-16T12:03:01;10.38;;;6.75;;
83560;SDS011;73534;52.584;13.392;2024-01-16T12:05:28;12.73;;;5.65;;
83560;SDS011;73534;52.584;13.392;2024-01-16T12:07:53;9.60;;;5.65;;
83560;SDS011;73534;52.584;13.392;2024-01-16T12:10:20;9.82;;;5.95;;
83560;SDS011;73534;52.584;13.392;2024-01-16T12:12:47;12.93;;;5.90;;
83560;SDS011;73534;52.584;13.392;2024-01-16T12:15:16;10.02;;;5.68;;
83560;SDS011;73534;52.584;13.392;2024-01-16T12:17:52;7.63;;;4.93;;
83560;SDS011;73534;52.584;13.392;2024-01-16T12:20:21;10.40;;;5.75;;
83560;SDS011;73534;52.584;13.392;2024-01-16T12:22:57;7.13;;;5.50;;
83560;SDS011;73534;52.584;13.392;2024-01-16T12:25:27;8.68;;;5.20;;
83560;SDS011;73534;52.584;13.392;2024-01-16T12:27:57;11.18;;;6.45;;
83560;SDS011;73534;52.584;13.392;2024-01-16T12:30:24;13.45;;;7.90;;
83560;SDS011;73534;52.584;13.392;2024-01-16T12:32:50;9.32;;;6.05;;
83560;SDS011;73534;52.584;13.392;2024-01-16T12:35:22;10.27;;;7.15;;
83560;SDS011;73534;52.584;13.392;2024-01-16T12:37:59;10.45;;;6.88;;
83560;SDS011;73534;52.584;13.392;2024-01-16T12:40:25;8.88;;;6.72;;
83560;SDS011;73534;52.584;13.392;2024-01-16T12:42:51;12.05;;;6.47;;
83560;SDS011;73534;52.584;13.392;2024-01-16T12:45:17;10.93;;;5.85;;
83560;SDS011;73534;52.584;13.392;2024-01-16T12:47:42;11.02;;;5.57;;
83560;SDS011;73534;52.584;13.392;2024-01-16T12:52:34;11.50;;;5.77;;
83560;SDS011;73534;52.584;13.392;2024-01-16T12:55:00;10.13;;;5.70;;
83560;SDS011;73534;52.584;13.392;2024-01-16T12:57:25;10.07;;;5.88;;
83560;SDS011;73534;52.584;13.392;2024-01-16T12:59:51;10.07;;;6.25;;
83560;SDS011;73534;52.584;13.392;2024-01-16T13:02:20;10.05;;;5.43;;
83560;SDS011;73534;52.584;13.392;2024-01-16T13:04:47;15.98;;;5.85;;
83560;SDS011;73534;52.584;13.392;2024-01-16T13:07:15;8.20;;;4.65;;
83560;SDS011;73534;52.584;13.392;2024-01-16T13:09:41;9.80;;;5.22;;
83560;SDS011;73534;52.584;13.392;2024-01-16T13:12:07;7.43;;;4.80;;
83560;SDS011;73534;52.584;13.392;2024-01-16T13:14:32;15.07;;;6.03;;
83560;SDS011;73534;52.584;13.392;2024-01-16T13:16:58;9.20;;;5.22;;
83560;SDS011;73534;52.584;13.392;2024-01-16T13:19:26;12.35;;;5.78;;
83560;SDS011;73534;52.584;13.392;2024-01-16T13:21:51;11.88;;;6.15;;
83560;SDS011;73534;52.584;13.392;2024-01-16T13:24:17;9.20;;;4.70;;
83560;SDS011;73534;52.584;13.392;2024-01-16T13:26:45;8.27;;;5.68;;
83560;SDS011;73534;52.584;13.392;2024-01-16T13:29:10;8.75;;;5.07;;
83560;SDS011;73534;52.584;13.392;2024-01-16T13:31:36;10.65;;;5.68;;
83560;SDS011;73534;52.584;13.392;2024-01-16T13:34:01;12.25;;;5.45;;
83560;SDS011;73534;52.584;13.392;2024-01-16T13:36:27;8.73;;;5.18;;
83560;SDS011;73534;52.584;13.392;2024-01-16T13:38:53;10.32;;;5.57;;
83560;SDS011;73534;52.584;13.392;2024-01-16T13:41:18;9.98;;;5.55;;
83560;SDS011;73534;52.584;13.392;2024-01-16T13:43:43;11.40;;;5.07;;
83560;SDS011;73534;52.584;13.392;2024-01-16T13:46:09;7.68;;;4.97;;
83560;SDS011;73534;52.584;13.392;2024-01-16T13:48:35;9.27;;;5.57;;
83560;SDS011;73534;52.584;13.392;2024-01-16T13:51:00;5.60;;;4.18;;
83560;SDS011;73534;52.584;13.392;2024-01-16T13:53:25;10.45;;;4.32;;
83560;SDS011;73534;52.584;13.392;2024-01-16T13:55:52;9.73;;;5.00;;
83560;SDS011;73534;52.584;13.392;2024-01-16T13:58:17;7.88;;;4.65;;
83560;SDS011;73534;52.584;13.392;2024-01-16T14:00:43;5.53;;;4.07;;
83560;SDS011;73534;52.584;13.392;2024-01-16T14:03:08;8.55;;;4.43;;
83560;SDS011;73534;52.584;13.392;2024-01-16T14:05:34;6.40;;;4.63;;
83560;SDS011;73534;52.584;13.392;2024-01-16T14:08:01;5.95;;;4.30;;
83560;SDS011;73534;52.584;13.392;2024-01-16T14:10:26;9.60;;;5.70;;
83560;SDS011;73534;52.584;13.392;2024-01-16T14:12:51;5.18;;;4.38;;
83560;SDS011;73534;52.584;13.392;2024-01-16T14:15:17;9.32;;;4.75;;
83560;SDS011;73534;52.584;13.392;2024-01-16T14:17:54;6.63;;;4.93;;
83560;SDS011;73534;52.584;13.392;2024-01-16T14:20:20;7.13;;;4.40;;
83560;SDS011;73534;52.584;13.392;2024-01-16T14:22:51;10.93;;;4.97;;
83560;SDS011;73534;52.584;13.392;2024-01-16T14:25:16;6.38;;;4.43;;
83560;SDS011;73534;52.584;13.392;2024-01-16T14:27:44;9.13;;;4.57;;
83560;SDS011;73534;52.584;13.392;2024-01-16T14:30:13;10.55;;;4.68;;